createdAt,value
2017-10-16T00:01:51.266Z,967.00
2017-10-16T00:02:51.271Z,966.98
2017-10-16T00:04:44.683Z,967.00
2017-10-16T00:05:44.663Z,967.03
2017-10-16T00:07:38.072Z,967.04
2017-10-16T00:08:38.063Z,967.06
2017-10-16T00:10:31.487Z,967.02
2017-10-16T00:11:31.462Z,967.02
2017-10-16T00:13:25.846Z,967.06
2017-10-16T00:14:25.855Z,967.05
2017-10-16T00:16:19.270Z,967.08
2017-10-16T00:17:19.272Z,967.06
2017-10-16T00:19:12.642Z,967.09
2017-10-16T00:20:12.654Z,967.14
2017-10-16T00:22:07.087Z,967.12
2017-10-16T00:23:07.043Z,967.09
2017-10-16T00:25:00.459Z,967.12
2017-10-16T00:26:00.443Z,967.11
2017-10-16T00:27:53.859Z,967.18
2017-10-16T00:28:53.840Z,967.12
2017-10-16T00:30:47.229Z,967.14
2017-10-16T00:31:47.236Z,967.10
2017-10-16T00:33:40.663Z,967.15
2017-10-16T00:34:40.634Z,967.13
2017-10-16T00:36:34.081Z,967.14
2017-10-16T00:37:34.031Z,967.13
2017-10-16T00:39:27.443Z,967.06
2017-10-16T00:40:27.422Z,967.09
2017-10-16T00:42:20.821Z,967.03
2017-10-16T00:43:20.823Z,967.01
2017-10-16T00:45:14.249Z,967.07
2017-10-16T00:46:14.217Z,967.03
2017-10-16T00:48:07.632Z,967.05
2017-10-16T00:49:07.622Z,967.06
2017-10-16T00:51:01.039Z,967.01
2017-10-16T00:52:01.037Z,966.97
2017-10-16T00:53:54.409Z,966.97
2017-10-16T00:54:54.414Z,966.98
2017-10-16T00:56:47.842Z,966.99
2017-10-16T00:57:47.828Z,966.96
2017-10-16T00:59:41.203Z,966.96
2017-10-16T01:00:41.207Z,966.95
2017-10-16T01:02:34.637Z,966.96
2017-10-16T01:03:34.606Z,966.98
2017-10-16T01:05:27.993Z,967.00
2017-10-16T01:06:28.003Z,966.98
2017-10-16T01:08:21.437Z,966.93
2017-10-16T01:09:21.407Z,966.96
2017-10-16T01:11:14.816Z,966.89
2017-10-16T01:12:14.802Z,966.87
2017-10-16T01:14:08.224Z,966.94
2017-10-16T01:15:08.224Z,966.95
2017-10-16T01:17:01.606Z,966.94
2017-10-16T01:18:01.611Z,966.94
2017-10-16T01:19:55.045Z,966.94
2017-10-16T01:20:55.016Z,966.92
2017-10-16T01:22:48.414Z,966.95
2017-10-16T01:23:48.420Z,966.97
2017-10-16T01:25:41.842Z,966.93
2017-10-16T01:26:41.816Z,966.89
2017-10-16T01:28:35.215Z,966.90
2017-10-16T01:29:35.235Z,966.94
2017-10-16T01:31:28.663Z,966.89
2017-10-16T01:32:28.623Z,966.90
2017-10-16T01:34:22.007Z,966.86
2017-10-16T01:35:22.016Z,966.87
2017-10-16T01:37:15.446Z,966.84
2017-10-16T01:38:15.409Z,966.84
2017-10-16T01:40:08.801Z,966.88
2017-10-16T01:41:08.811Z,966.88
2017-10-16T01:43:02.235Z,966.88
2017-10-16T01:44:02.204Z,966.86
2017-10-16T01:45:55.588Z,966.84
2017-10-16T01:46:55.594Z,966.81
2017-10-16T01:48:49.021Z,966.79
2017-10-16T01:49:48.999Z,966.81
2017-10-16T01:51:42.391Z,966.84
2017-10-16T01:52:42.398Z,966.87
2017-10-16T01:54:35.860Z,966.85
2017-10-16T01:55:35.808Z,966.86
2017-10-16T01:57:29.188Z,966.82
2017-10-16T01:58:29.195Z,966.82
2017-10-16T02:00:22.621Z,966.79
2017-10-16T02:01:22.598Z,966.79
2017-10-16T02:03:15.988Z,966.79
2017-10-16T02:04:15.990Z,966.77
2017-10-16T02:06:09.528Z,966.78
2017-10-16T02:07:09.389Z,966.77
2017-10-16T02:09:02.781Z,966.78
2017-10-16T02:10:02.785Z,966.79
2017-10-16T02:11:56.215Z,966.80
2017-10-16T02:12:56.184Z,966.77
2017-10-16T02:14:49.594Z,966.76
2017-10-16T02:15:49.586Z,966.78
2017-10-16T02:17:43.015Z,966.73
2017-10-16T02:18:42.992Z,966.79
2017-10-16T02:20:36.382Z,966.80
2017-10-16T02:21:36.401Z,966.78
2017-10-16T02:23:29.817Z,966.74
2017-10-16T02:24:29.786Z,966.73
2017-10-16T02:26:23.200Z,966.71
2017-10-16T02:27:23.182Z,966.74
2017-10-16T02:29:16.620Z,966.76
2017-10-16T02:30:16.588Z,966.76
2017-10-16T02:32:09.990Z,966.78
2017-10-16T02:33:09.990Z,966.81
2017-10-16T02:35:03.431Z,966.80
2017-10-16T02:36:03.397Z,966.81
2017-10-16T02:37:56.781Z,966.80
2017-10-16T02:38:56.790Z,966.77
2017-10-16T02:40:50.207Z,966.82
2017-10-16T02:41:50.215Z,966.78
2017-10-16T02:43:43.579Z,966.76
2017-10-16T02:44:43.583Z,966.77
2017-10-16T02:46:37.018Z,966.73
2017-10-16T02:47:37.008Z,966.72
2017-10-16T02:49:30.364Z,966.76
2017-10-16T02:50:30.376Z,966.78
2017-10-16T02:52:23.788Z,966.77
2017-10-16T02:53:23.767Z,966.81
2017-10-16T02:55:17.159Z,966.82
2017-10-16T02:56:17.164Z,966.80
2017-10-16T02:58:10.603Z,966.81
2017-10-16T02:59:10.567Z,966.81
2017-10-16T03:01:03.949Z,966.82
2017-10-16T03:02:03.960Z,966.81
2017-10-16T03:03:57.412Z,966.80
2017-10-16T03:04:57.354Z,966.79
2017-10-16T03:06:50.747Z,966.75
2017-10-16T03:07:50.753Z,966.74
2017-10-16T03:09:44.171Z,966.81
2017-10-16T03:10:44.152Z,966.84
2017-10-16T03:12:37.533Z,966.78
2017-10-16T03:13:37.540Z,966.82
2017-10-16T03:15:30.967Z,966.81
2017-10-16T03:16:30.960Z,966.82
2017-10-16T03:18:24.338Z,966.81
2017-10-16T03:19:24.341Z,966.82
2017-10-16T03:21:18.765Z,966.77
2017-10-16T03:22:18.732Z,966.80
2017-10-16T03:24:12.138Z,966.78
2017-10-16T03:25:12.131Z,966.83
2017-10-16T03:27:05.557Z,966.77
2017-10-16T03:28:05.523Z,966.79
2017-10-16T03:29:58.930Z,966.81
2017-10-16T03:30:58.929Z,966.80
2017-10-16T03:32:52.355Z,966.81
2017-10-16T03:33:52.320Z,966.78
2017-10-16T03:35:45.717Z,966.79
2017-10-16T03:36:45.721Z,966.78
2017-10-16T03:38:39.151Z,966.80
2017-10-16T03:39:39.132Z,966.82
2017-10-16T03:41:32.523Z,966.83
2017-10-16T03:42:32.524Z,966.83
2017-10-16T03:44:26.956Z,966.83
2017-10-16T03:45:26.926Z,966.82
2017-10-16T03:47:20.311Z,966.80
2017-10-16T03:48:20.327Z,966.80
2017-10-16T03:50:13.736Z,966.80
2017-10-16T03:51:13.712Z,966.82
2017-10-16T03:53:07.101Z,966.83
2017-10-16T03:54:07.107Z,966.81
2017-10-16T03:56:00.531Z,966.84
2017-10-16T03:57:00.499Z,966.82
2017-10-16T03:58:53.900Z,966.85
2017-10-16T03:59:53.922Z,966.84
2017-10-16T04:01:47.394Z,966.81
2017-10-16T04:02:47.439Z,966.85
2017-10-16T04:04:40.713Z,966.83
2017-10-16T04:05:40.756Z,966.85
2017-10-16T04:07:35.190Z,966.86
2017-10-16T04:08:35.205Z,966.82
2017-10-16T04:10:28.578Z,966.83
2017-10-16T04:11:28.612Z,966.80
2017-10-16T04:13:22.079Z,966.83
2017-10-16T04:14:22.001Z,966.84
2017-10-16T04:16:15.384Z,966.78
2017-10-16T04:17:15.455Z,966.74
2017-10-16T04:19:08.780Z,966.72
2017-10-16T04:20:08.797Z,966.74
2017-10-16T04:22:02.197Z,966.78
2017-10-16T04:23:02.202Z,966.77
2017-10-16T04:24:56.688Z,966.84
2017-10-16T04:25:56.603Z,966.83
2017-10-16T04:27:49.965Z,966.80
2017-10-16T04:28:49.960Z,966.77
2017-10-16T04:30:44.412Z,966.76
2017-10-16T04:31:44.434Z,966.77
2017-10-16T04:33:37.800Z,966.78
2017-10-16T04:34:37.777Z,966.79
2017-10-16T04:36:31.518Z,966.79
2017-10-16T04:37:31.190Z,966.75
2017-10-16T04:39:25.626Z,966.74
2017-10-16T04:40:24.592Z,966.73
2017-10-16T04:42:17.988Z,966.80
2017-10-16T04:43:17.990Z,966.78
2017-10-16T04:45:11.377Z,966.78
2017-10-16T04:46:11.373Z,966.83
2017-10-16T04:48:04.601Z,966.83
2017-10-16T04:49:04.511Z,966.83
2017-10-16T04:50:58.802Z,966.82
2017-10-16T04:51:58.920Z,966.82
2017-10-16T04:53:52.354Z,966.81
2017-10-16T04:54:53.189Z,966.84
2017-10-16T04:56:48.680Z,966.84
2017-10-16T04:57:45.566Z,966.85
2017-10-16T04:59:39.060Z,966.79
2017-10-16T05:00:38.994Z,966.77
2017-10-16T05:02:32.642Z,966.79
2017-10-16T05:03:32.365Z,966.79
2017-10-16T05:05:25.811Z,966.78
2017-10-16T05:06:25.927Z,966.74
2017-10-16T05:08:19.183Z,966.77
2017-10-16T05:09:19.250Z,966.76
2017-10-16T05:11:12.622Z,966.79
2017-10-16T05:12:12.590Z,966.79
2017-10-16T05:14:05.952Z,966.79
2017-10-16T05:15:05.986Z,966.81
2017-10-16T05:16:59.420Z,966.77
2017-10-16T05:17:59.401Z,966.75
2017-10-16T05:19:52.796Z,966.70
2017-10-16T05:20:52.770Z,966.70
2017-10-16T05:22:46.217Z,966.71
2017-10-16T05:23:46.189Z,966.70
2017-10-16T05:25:39.553Z,966.71
2017-10-16T05:26:39.575Z,966.70
2017-10-16T05:28:33.029Z,966.71
2017-10-16T05:29:33.592Z,966.70
2017-10-16T05:31:26.359Z,966.73
2017-10-16T05:32:26.341Z,966.74
2017-10-16T05:34:20.816Z,966.80
2017-10-16T05:35:20.766Z,966.76
2017-10-16T05:37:14.168Z,966.75
2017-10-16T05:38:14.182Z,966.78
2017-10-16T05:40:07.575Z,966.75
2017-10-16T05:41:07.595Z,966.75
2017-10-16T05:43:01.973Z,966.76
2017-10-16T05:44:01.953Z,966.75
2017-10-16T05:45:55.381Z,966.75
2017-10-16T05:46:55.326Z,966.76
2017-10-16T05:48:48.826Z,966.75
2017-10-16T05:49:48.739Z,966.74
2017-10-16T05:51:42.173Z,966.75
2017-10-16T05:52:42.156Z,966.73
2017-10-16T05:54:35.515Z,966.75
2017-10-16T05:55:35.556Z,966.75
2017-10-16T05:57:28.921Z,966.78
2017-10-16T05:58:28.952Z,966.80
2017-10-16T06:00:22.340Z,966.76
2017-10-16T06:01:22.347Z,966.74
2017-10-16T06:03:15.768Z,966.77
2017-10-16T06:04:15.698Z,966.83
2017-10-16T06:06:09.107Z,966.77
2017-10-16T06:07:09.126Z,966.80
2017-10-16T06:09:02.542Z,966.79
2017-10-16T06:10:02.505Z,966.83
2017-10-16T06:11:55.909Z,966.84
2017-10-16T06:12:55.936Z,966.85
2017-10-16T06:14:49.316Z,966.81
2017-10-16T06:15:49.320Z,966.81
2017-10-16T06:17:42.703Z,966.86
2017-10-16T06:18:42.675Z,966.86
2017-10-16T06:20:36.108Z,966.86
2017-10-16T06:21:36.076Z,966.88
2017-10-16T06:23:29.489Z,966.90
2017-10-16T06:24:29.490Z,966.87
2017-10-16T06:26:23.917Z,966.93
2017-10-16T06:27:23.904Z,966.95
2017-10-16T06:29:17.291Z,966.91
2017-10-16T06:30:17.292Z,966.94
2017-10-16T06:32:10.691Z,966.96
2017-10-16T06:33:10.683Z,966.98
2017-10-16T06:35:04.069Z,966.98
2017-10-16T06:36:04.054Z,966.98
2017-10-16T06:37:57.500Z,966.91
2017-10-16T06:38:57.457Z,966.94
2017-10-16T06:40:50.872Z,966.91
2017-10-16T06:41:50.869Z,966.92
2017-10-16T06:43:44.311Z,966.91
2017-10-16T06:44:44.291Z,966.90
2017-10-16T06:46:37.679Z,966.95
2017-10-16T06:47:37.669Z,966.95
2017-10-16T06:49:31.087Z,966.93
2017-10-16T06:50:31.069Z,966.94
2017-10-16T06:52:24.563Z,966.94
2017-10-16T06:53:32.266Z,966.99
2017-10-16T06:55:25.772Z,967.00
2017-10-16T06:56:26.694Z,967.01
2017-10-16T06:58:21.027Z,967.05
2017-10-16T06:59:11.376Z,967.03
2017-10-16T07:01:12.525Z,966.99
2017-10-16T07:02:04.884Z,967.03
2017-10-16T07:04:05.880Z,966.96
2017-10-16T07:04:58.178Z,966.98
2017-10-16T07:06:51.650Z,967.01
2017-10-16T07:07:59.322Z,967.03
2017-10-16T07:09:52.687Z,967.03
2017-10-16T07:10:45.073Z,967.03
2017-10-16T07:12:46.138Z,967.05
2017-10-16T07:13:46.047Z,967.01
2017-10-16T07:15:31.856Z,967.04
2017-10-16T07:16:40.392Z,966.99
2017-10-16T07:18:25.222Z,967.00
2017-10-16T07:19:33.911Z,967.00
2017-10-16T07:21:18.649Z,966.98
2017-10-16T07:22:26.290Z,966.99
2017-10-16T07:24:19.658Z,967.01
2017-10-16T07:25:19.635Z,967.01
2017-10-16T07:27:13.092Z,967.06
2017-10-16T07:28:14.104Z,967.04
2017-10-16T07:30:06.518Z,967.00
2017-10-16T07:30:58.879Z,967.00
2017-10-16T07:33:00.877Z,967.02
2017-10-16T07:34:00.762Z,966.98
2017-10-16T07:35:55.295Z,967.03
2017-10-16T07:36:46.662Z,967.04
2017-10-16T07:38:47.703Z,967.04
2017-10-16T07:39:40.088Z,967.07
2017-10-16T07:41:41.132Z,967.09
2017-10-16T07:42:33.443Z,967.07
2017-10-16T07:44:34.428Z,967.09
2017-10-16T07:45:26.845Z,967.12
2017-10-16T07:47:21.229Z,967.13
2017-10-16T07:48:21.202Z,967.15
2017-10-16T07:50:22.326Z,967.17
2017-10-16T07:51:14.616Z,967.14
2017-10-16T07:53:08.124Z,967.16
2017-10-16T07:54:08.118Z,967.16
2017-10-16T07:56:09.151Z,967.21
2017-10-16T07:57:01.525Z,967.21
2017-10-16T07:58:54.960Z,967.19
2017-10-16T07:59:54.874Z,967.21
2017-10-16T08:01:48.216Z,967.24
2017-10-16T08:02:48.305Z,967.27
2017-10-16T08:04:41.764Z,967.28
2017-10-16T08:05:41.695Z,967.29
2017-10-16T08:07:36.053Z,967.24
2017-10-16T08:08:36.079Z,967.24
2017-10-16T08:10:38.118Z,967.21
2017-10-16T08:11:29.487Z,967.20
2017-10-16T08:13:22.895Z,967.20
2017-10-16T08:14:22.907Z,967.21
2017-10-16T08:16:16.320Z,967.20
2017-10-16T08:17:16.427Z,967.22
2017-10-16T08:19:09.756Z,967.25
2017-10-16T08:20:09.837Z,967.26
2017-10-16T08:22:11.644Z,967.20
2017-10-16T08:23:03.173Z,967.21
2017-10-16T08:24:56.613Z,967.19
2017-10-16T08:25:56.627Z,967.23
2017-10-16T08:27:50.912Z,967.21
2017-10-16T08:28:50.897Z,967.22
2017-10-16T08:30:44.313Z,967.20
2017-10-16T08:31:44.400Z,967.22
2017-10-16T08:33:37.803Z,967.23
2017-10-16T08:34:37.808Z,967.22
2017-10-16T08:36:31.173Z,967.26
2017-10-16T08:37:31.107Z,967.23
2017-10-16T08:39:24.649Z,967.22
2017-10-16T08:40:24.677Z,967.26
2017-10-16T08:42:25.573Z,967.25
2017-10-16T08:43:18.009Z,967.27
2017-10-16T08:45:11.558Z,967.27
2017-10-16T08:46:20.889Z,967.30
2017-10-16T08:48:04.820Z,967.33
2017-10-16T08:49:04.855Z,967.32
2017-10-16T08:50:58.261Z,967.31
2017-10-16T08:51:58.569Z,967.28
2017-10-16T08:53:59.834Z,967.31
2017-10-16T08:54:51.680Z,967.33
2017-10-16T08:56:45.269Z,967.23
2017-10-16T08:57:45.239Z,967.28
2017-10-16T08:59:38.778Z,967.26
2017-10-16T09:00:38.837Z,967.26
2017-10-16T09:02:31.934Z,967.27
2017-10-16T09:03:32.176Z,967.26
2017-10-16T09:05:25.576Z,967.27
2017-10-16T09:06:25.633Z,967.26
2017-10-16T09:08:19.026Z,967.26
2017-10-16T09:09:19.124Z,967.28
2017-10-16T09:11:12.469Z,967.25
2017-10-16T09:12:12.540Z,967.29
2017-10-16T09:14:06.830Z,967.22
2017-10-16T09:15:07.044Z,967.26
2017-10-16T09:17:00.164Z,967.25
2017-10-16T09:18:00.450Z,967.25
2017-10-16T09:20:14.187Z,967.27
2017-10-16T09:21:06.445Z,967.25
2017-10-16T09:22:59.939Z,967.26
2017-10-16T09:23:59.788Z,967.25
2017-10-16T09:25:53.388Z,967.22
2017-10-16T09:26:53.248Z,967.24
2017-10-16T09:28:47.501Z,967.25
2017-10-16T09:29:47.559Z,967.23
2017-10-16T09:31:40.990Z,967.23
2017-10-16T09:32:41.083Z,967.22
2017-10-16T09:34:34.508Z,967.21
2017-10-16T09:35:34.595Z,967.18
2017-10-16T09:37:28.841Z,967.23
2017-10-16T09:38:28.901Z,967.16
2017-10-16T09:40:24.275Z,967.18
2017-10-16T09:41:24.244Z,967.15
2017-10-16T09:43:17.772Z,967.13
2017-10-16T09:44:17.731Z,967.12
2017-10-16T09:46:11.292Z,967.10
2017-10-16T09:47:11.065Z,967.10
2017-10-16T09:49:04.599Z,967.14
2017-10-16T09:50:05.053Z,967.19
2017-10-16T09:51:58.220Z,967.19
2017-10-16T09:52:58.601Z,967.21
2017-10-16T09:54:54.063Z,967.24
2017-10-16T09:55:53.967Z,967.28
2017-10-16T09:57:49.641Z,967.29
2017-10-16T09:58:58.624Z,967.33
2017-10-16T10:00:57.107Z,967.30
2017-10-16T10:03:31.050Z,967.32
2017-10-16T10:04:34.386Z,967.36
2017-10-16T10:05:32.929Z,967.38
2017-10-16T10:09:19.847Z,967.41
2017-10-16T10:11:05.121Z,967.49
2017-10-16T10:13:46.833Z,967.52
2017-10-16T10:17:31.555Z,967.58
2017-10-16T10:20:13.653Z,967.60
2017-10-16T10:21:18.367Z,967.59
2017-10-16T10:23:19.641Z,967.62
2017-10-16T10:26:01.836Z,967.56
2017-10-16T10:28:12.000Z,967.61
2017-10-16T10:30:53.435Z,967.58
2017-10-16T10:31:52.543Z,967.60
2017-10-16T10:34:38.107Z,967.63
2017-10-16T10:42:48.392Z,967.74
2017-10-16T10:43:48.382Z,967.70
2017-10-16T10:45:41.815Z,967.71
2017-10-16T10:46:41.815Z,967.67
2017-10-16T10:48:35.279Z,967.69
2017-10-16T10:49:35.271Z,967.72
2017-10-16T10:51:28.693Z,967.75
2017-10-16T10:52:28.712Z,967.69
2017-10-16T10:54:22.199Z,967.68
2017-10-16T10:55:22.190Z,967.68
2017-10-16T10:57:15.568Z,967.68
2017-10-16T10:58:15.589Z,967.68
2017-10-16T11:00:09.047Z,967.68
2017-10-16T11:01:09.031Z,967.70
2017-10-16T11:03:02.452Z,967.63
2017-10-16T11:04:02.467Z,967.69
2017-10-16T11:05:55.915Z,967.64
2017-10-16T11:06:55.918Z,967.67
2017-10-16T11:08:49.335Z,967.65
2017-10-16T11:09:49.359Z,967.62
2017-10-16T11:11:42.815Z,967.60
2017-10-16T11:12:42.797Z,967.57
2017-10-16T11:14:36.219Z,967.46
2017-10-16T11:15:36.248Z,967.44
2017-10-16T11:17:29.679Z,967.43
2017-10-16T11:18:29.682Z,967.43
2017-10-16T11:20:23.096Z,967.37
2017-10-16T11:21:23.118Z,967.30
2017-10-16T11:23:16.551Z,967.30
2017-10-16T11:24:16.555Z,967.34
2017-10-16T11:26:09.972Z,967.37
2017-10-16T11:27:09.990Z,967.36
2017-10-16T11:29:03.431Z,967.42
2017-10-16T11:30:03.426Z,967.49
2017-10-16T11:31:58.811Z,967.35
2017-10-16T11:32:58.737Z,967.36
2017-10-16T11:34:52.183Z,967.32
2017-10-16T11:35:52.164Z,967.28
2017-10-16T11:37:45.579Z,967.17
2017-10-16T11:38:45.595Z,967.13
2017-10-16T11:40:39.028Z,967.07
2017-10-16T11:41:39.030Z,967.03
2017-10-16T11:43:32.441Z,966.96
2017-10-16T11:44:32.462Z,966.95
2017-10-16T11:46:25.921Z,966.93
2017-10-16T11:47:25.898Z,966.89
2017-10-16T11:49:19.311Z,966.93
2017-10-16T11:50:19.324Z,966.87
2017-10-16T11:52:12.762Z,966.87
2017-10-16T11:53:12.753Z,966.89
2017-10-16T11:55:06.173Z,966.94
2017-10-16T11:56:06.190Z,966.95
2017-10-16T11:57:59.829Z,966.95
2017-10-16T11:58:59.823Z,966.95
2017-10-16T12:00:53.249Z,966.89
2017-10-16T12:01:53.260Z,966.83
2017-10-16T12:03:46.705Z,966.76
2017-10-16T12:04:46.704Z,966.74
2017-10-16T12:06:40.107Z,966.76
2017-10-16T12:07:40.125Z,966.72
2017-10-16T12:09:33.574Z,966.65
2017-10-16T12:10:33.552Z,966.62
2017-10-16T12:12:26.962Z,966.59
2017-10-16T12:13:26.976Z,966.58
2017-10-16T12:15:20.406Z,966.61
2017-10-16T12:16:20.406Z,966.60
2017-10-16T12:18:13.816Z,966.60
2017-10-16T12:19:13.840Z,966.60
2017-10-16T12:21:07.263Z,966.59
2017-10-16T12:22:07.258Z,966.60
2017-10-16T12:24:00.683Z,966.51
2017-10-16T12:25:00.693Z,966.57
2017-10-16T12:26:54.140Z,966.63
2017-10-16T12:27:54.118Z,966.61
2017-10-16T12:29:47.528Z,966.68
2017-10-16T12:30:47.541Z,966.67
2017-10-16T12:32:40.985Z,966.67
2017-10-16T12:33:40.965Z,966.68
2017-10-16T12:35:34.374Z,966.59
2017-10-16T12:36:34.388Z,966.61
2017-10-16T12:38:27.823Z,966.58
2017-10-16T12:39:27.812Z,966.56
2017-10-16T12:41:21.225Z,966.52
2017-10-16T12:42:21.239Z,966.46
2017-10-16T12:44:14.681Z,966.39
2017-10-16T12:45:14.658Z,966.37
2017-10-16T12:47:08.065Z,966.27
2017-10-16T12:48:08.080Z,966.27
2017-10-16T12:50:01.513Z,966.21
2017-10-16T12:51:01.504Z,966.21
2017-10-16T12:52:54.911Z,966.10
2017-10-16T12:53:54.926Z,966.10
2017-10-16T12:55:48.375Z,966.13
2017-10-16T12:56:48.360Z,966.11
2017-10-16T12:58:41.752Z,966.06
2017-10-16T12:59:41.774Z,966.07
2017-10-16T13:01:35.196Z,966.14
2017-10-16T13:02:35.204Z,966.15
2017-10-16T13:04:28.595Z,966.10
2017-10-16T13:05:28.607Z,966.12
2017-10-16T13:07:22.054Z,966.09
2017-10-16T13:08:22.039Z,966.06
2017-10-16T13:10:16.430Z,966.03
2017-10-16T13:11:16.445Z,966.06
2017-10-16T13:13:09.882Z,966.02
2017-10-16T13:14:09.870Z,966.07
2017-10-16T13:16:03.286Z,966.08
2017-10-16T13:17:03.300Z,966.09
2017-10-16T13:18:57.748Z,966.09
2017-10-16T13:19:57.727Z,966.09
2017-10-16T13:21:51.136Z,966.05
2017-10-16T13:22:51.149Z,966.03
2017-10-16T13:24:44.592Z,966.09
2017-10-16T13:25:44.568Z,966.08
2017-10-16T13:27:37.963Z,966.02
2017-10-16T13:28:37.978Z,966.01
2017-10-16T13:30:31.416Z,965.96
2017-10-16T13:31:31.398Z,965.95
2017-10-16T13:33:24.801Z,965.92
2017-10-16T13:34:24.812Z,965.87
2017-10-16T13:36:18.270Z,965.88
2017-10-16T13:37:18.261Z,965.85
2017-10-16T13:39:11.673Z,965.85
2017-10-16T13:40:11.686Z,965.84
2017-10-16T13:42:05.128Z,965.85
2017-10-16T13:43:05.103Z,965.88
2017-10-16T13:44:58.511Z,965.89
2017-10-16T13:45:58.518Z,965.86
2017-10-16T13:47:51.953Z,965.91
2017-10-16T13:48:51.942Z,965.92
2017-10-16T13:50:45.356Z,965.91
2017-10-16T13:51:45.369Z,965.91
2017-10-16T13:53:38.786Z,965.89
2017-10-16T13:54:38.786Z,965.87
2017-10-16T13:56:32.193Z,965.85
2017-10-16T13:57:32.194Z,965.88
2017-10-16T13:59:25.629Z,965.87
2017-10-16T14:00:25.615Z,965.84
2017-10-16T14:02:19.021Z,965.86
2017-10-16T14:03:19.032Z,965.84
2017-10-16T14:05:12.472Z,965.81
2017-10-16T14:06:12.443Z,965.85
2017-10-16T14:08:05.847Z,965.86
2017-10-16T14:09:05.857Z,965.84
2017-10-16T14:10:59.278Z,965.84
2017-10-16T14:11:59.280Z,965.80
2017-10-16T14:13:52.679Z,965.81
2017-10-16T14:14:52.687Z,965.78
2017-10-16T14:16:46.123Z,965.79
2017-10-16T14:17:46.103Z,965.80
2017-10-16T14:19:39.510Z,965.75
2017-10-16T14:20:39.522Z,965.74
2017-10-16T14:22:32.968Z,965.71
2017-10-16T14:23:32.937Z,965.72
2017-10-16T14:25:26.340Z,965.70
2017-10-16T14:26:26.354Z,965.69
2017-10-16T14:28:19.774Z,965.71
2017-10-16T14:29:19.769Z,965.70
2017-10-16T14:31:13.169Z,965.71
2017-10-16T14:32:13.182Z,965.71
2017-10-16T14:34:06.607Z,965.66
2017-10-16T14:35:06.595Z,965.71
2017-10-16T14:37:00.008Z,965.73
2017-10-16T14:38:00.012Z,965.75
2017-10-16T14:39:53.443Z,965.67
2017-10-16T14:40:53.439Z,965.70
2017-10-16T14:42:46.834Z,965.66
2017-10-16T14:43:46.842Z,965.67
2017-10-16T14:45:40.265Z,965.68
2017-10-16T14:46:40.259Z,965.62
2017-10-16T14:48:33.664Z,965.66
2017-10-16T14:49:33.673Z,965.65
2017-10-16T14:51:27.098Z,965.62
2017-10-16T14:52:27.084Z,965.66
2017-10-16T14:54:20.484Z,965.61
2017-10-16T14:55:20.496Z,965.60
2017-10-16T14:57:13.938Z,965.58
2017-10-16T14:58:13.908Z,965.58
2017-10-16T15:00:07.321Z,965.56
2017-10-16T15:01:07.325Z,965.57
2017-10-16T15:03:00.741Z,965.55
2017-10-16T15:04:00.736Z,965.57
2017-10-16T15:05:54.148Z,965.54
2017-10-16T15:06:54.159Z,965.52
2017-10-16T15:08:47.608Z,965.54
2017-10-16T15:09:47.573Z,965.54
2017-10-16T15:11:40.974Z,965.58
2017-10-16T15:12:40.987Z,965.59
2017-10-16T15:14:34.423Z,965.55
2017-10-16T15:15:34.399Z,965.56
2017-10-16T15:17:27.799Z,965.59
2017-10-16T15:18:27.810Z,965.59
2017-10-16T15:20:21.253Z,965.57
2017-10-16T15:21:21.228Z,965.58
2017-10-16T15:23:15.633Z,965.54
2017-10-16T15:24:15.641Z,965.55
2017-10-16T15:26:09.086Z,965.56
2017-10-16T15:27:09.055Z,965.52
2017-10-16T15:29:02.470Z,965.54
2017-10-16T15:30:02.477Z,965.52
2017-10-16T15:31:55.931Z,965.52
2017-10-16T15:32:55.890Z,965.53
2017-10-16T15:34:49.288Z,965.50
2017-10-16T15:35:49.313Z,965.47
2017-10-16T15:37:42.736Z,965.48
2017-10-16T15:38:42.726Z,965.45
2017-10-16T15:40:36.126Z,965.44
2017-10-16T15:41:36.135Z,965.42
2017-10-16T15:43:29.588Z,965.38
2017-10-16T15:44:29.544Z,965.41
2017-10-16T15:46:22.949Z,965.39
2017-10-16T15:47:22.953Z,965.40
2017-10-16T15:49:16.396Z,965.39
2017-10-16T15:50:16.366Z,965.42
2017-10-16T15:52:09.766Z,965.45
2017-10-16T15:53:09.773Z,965.46
2017-10-16T15:55:03.220Z,965.44
2017-10-16T15:56:03.190Z,965.45
2017-10-16T15:57:56.585Z,965.44
2017-10-16T15:58:56.597Z,965.45
2017-10-16T16:00:50.031Z,965.48
2017-10-16T16:01:50.003Z,965.45
2017-10-16T16:03:43.402Z,965.46
2017-10-16T16:04:43.415Z,965.45
2017-10-16T16:06:36.832Z,965.45
2017-10-16T16:07:36.825Z,965.46
2017-10-16T16:09:30.246Z,965.50
2017-10-16T16:10:30.259Z,965.52
2017-10-16T16:12:23.695Z,965.52
2017-10-16T16:13:23.688Z,965.54
2017-10-16T16:15:17.077Z,965.55
2017-10-16T16:16:17.071Z,965.54
2017-10-16T16:18:10.519Z,965.52
2017-10-16T16:19:10.491Z,965.53
2017-10-16T16:21:03.894Z,965.52
2017-10-16T16:22:03.908Z,965.54
2017-10-16T16:23:57.319Z,965.53
2017-10-16T16:24:57.306Z,965.62
2017-10-16T16:26:50.710Z,965.61
2017-10-16T16:27:50.719Z,965.62
2017-10-16T16:29:44.151Z,965.63
2017-10-16T16:30:44.121Z,965.60
2017-10-16T16:32:37.518Z,965.63
2017-10-16T16:33:37.535Z,965.68
2017-10-16T16:35:30.975Z,965.64
2017-10-16T16:36:30.940Z,965.66
2017-10-16T16:38:24.346Z,965.67
2017-10-16T16:39:24.355Z,965.72
2017-10-16T16:41:17.764Z,965.69
2017-10-16T16:42:17.758Z,965.66
2017-10-16T16:44:11.183Z,965.66
2017-10-16T16:45:11.165Z,965.70
2017-10-16T16:47:04.617Z,965.70
2017-10-16T16:48:04.580Z,965.72
2017-10-16T16:49:57.976Z,965.69
2017-10-16T16:50:58.003Z,965.71
2017-10-16T16:52:59.293Z,965.70
2017-10-16T16:53:51.589Z,965.70
2017-10-16T16:55:44.993Z,965.76
2017-10-16T16:56:44.986Z,965.78
2017-10-16T16:58:38.400Z,965.77
2017-10-16T16:59:38.397Z,965.81
2017-10-16T17:01:31.786Z,965.76
2017-10-16T17:02:31.804Z,965.77
2017-10-16T17:04:25.259Z,965.76
2017-10-16T17:05:25.254Z,965.78
2017-10-16T17:07:18.595Z,965.79
2017-10-16T17:08:18.615Z,965.79
2017-10-16T17:10:12.037Z,965.78
2017-10-16T17:11:12.013Z,965.82
2017-10-16T17:13:05.438Z,965.82
2017-10-16T17:14:05.435Z,965.86
2017-10-16T17:15:58.834Z,965.87
2017-10-16T17:16:58.818Z,965.86
2017-10-16T17:18:52.226Z,965.85
2017-10-16T17:19:52.228Z,965.89
2017-10-16T17:21:45.673Z,965.92
2017-10-16T17:22:45.649Z,965.90
2017-10-16T17:24:39.029Z,965.88
2017-10-16T17:25:39.041Z,965.85
2017-10-16T17:27:32.470Z,965.90
2017-10-16T17:28:32.448Z,965.91
2017-10-16T17:30:25.840Z,965.92
2017-10-16T17:31:25.845Z,965.92
2017-10-16T17:33:19.286Z,965.92
2017-10-16T17:34:19.258Z,965.94
2017-10-16T17:36:12.653Z,965.96
2017-10-16T17:37:12.662Z,965.95
2017-10-16T17:39:06.087Z,965.94
2017-10-16T17:40:06.074Z,965.93
2017-10-16T17:41:59.483Z,965.95
2017-10-16T17:42:59.467Z,965.93
2017-10-16T17:44:52.908Z,965.90
2017-10-16T17:45:52.871Z,965.88
2017-10-16T17:47:46.291Z,965.90
2017-10-16T17:48:46.316Z,965.89
2017-10-16T17:50:39.732Z,965.86
2017-10-16T17:51:39.705Z,965.88
2017-10-16T17:53:33.114Z,965.89
2017-10-16T17:54:33.103Z,965.88
2017-10-16T17:56:26.545Z,965.87
2017-10-16T17:57:26.530Z,965.88
2017-10-16T17:59:20.608Z,965.93
2017-10-16T18:00:19.979Z,965.94
2017-10-16T18:02:13.364Z,965.92
2017-10-16T18:03:13.339Z,965.96
2017-10-16T18:05:06.729Z,965.93
2017-10-16T18:06:06.748Z,965.93
2017-10-16T18:08:00.185Z,965.98
2017-10-16T18:09:00.148Z,965.99
2017-10-16T18:10:53.545Z,965.97
2017-10-16T18:11:53.549Z,965.96
2017-10-16T18:13:46.991Z,965.96
2017-10-16T18:14:46.959Z,965.96
2017-10-16T18:16:40.345Z,965.95
2017-10-16T18:17:40.354Z,965.98
2017-10-16T18:19:33.789Z,966.00
2017-10-16T18:20:33.757Z,965.97
2017-10-16T18:22:27.160Z,965.93